createdAt,value
2019-03-18T00:01:25.493Z,45.08
2019-03-18T00:03:52.140Z,44.95
2019-03-18T00:11:54.713Z,42.53
2019-03-18T00:14:28.611Z,41.86
2019-03-18T00:16:59.517Z,41.42
2019-03-18T00:19:26.803Z,41.05
2019-03-18T00:21:54.518Z,40.87
2019-03-18T00:24:22.135Z,40.48
2019-03-18T00:26:51.814Z,40.09
2019-03-18T00:29:22.947Z,40.03
2019-03-18T00:31:52.187Z,39.94
2019-03-18T00:34:31.423Z,39.62
2019-03-18T00:37:02.107Z,39.33
2019-03-18T00:39:46.983Z,38.52
2019-03-18T00:42:21.542Z,38.53
2019-03-18T00:44:45.421Z,38.31
2019-03-18T00:47:12.318Z,38.72
2019-03-18T00:49:40.908Z,38.59
2019-03-18T00:52:07.806Z,38.38
2019-03-18T00:54:34.431Z,38.11
2019-03-18T00:57:01.116Z,38.46
2019-03-18T00:59:27.727Z,38.14
2019-03-18T01:01:54.926Z,38.72
2019-03-18T01:04:21.826Z,38.51
2019-03-18T01:06:49.100Z,38.46
2019-03-18T01:09:15.963Z,37.57
2019-03-18T01:11:42.683Z,37.09
2019-03-18T01:14:09.579Z,36.95
2019-03-18T01:16:36.329Z,37.36
2019-03-18T01:19:02.955Z,37.55
2019-03-18T01:21:29.877Z,37.98
2019-03-18T01:23:56.637Z,37.96
2019-03-18T01:26:23.335Z,38.19
2019-03-18T01:28:50.223Z,37.93
2019-03-18T01:31:17.399Z,37.59
2019-03-18T01:33:44.624Z,37.95
2019-03-18T01:36:11.583Z,38.21
2019-03-18T01:38:38.496Z,37.84
2019-03-18T01:41:05.213Z,37.82
2019-03-18T01:43:32.581Z,37.78
2019-03-18T01:45:59.277Z,37.58
2019-03-18T01:48:26.186Z,37.31
2019-03-18T01:50:53.104Z,37.89
2019-03-18T01:53:20.036Z,38.15
2019-03-18T01:55:47.049Z,38.16
2019-03-18T01:58:13.660Z,38.38
2019-03-18T02:00:40.282Z,38.75
2019-03-18T02:03:07.456Z,39.80
2019-03-18T02:05:34.039Z,40.71
2019-03-18T02:10:49.641Z,40.73
2019-03-18T02:13:18.596Z,43.83
2019-03-18T02:15:53.644Z,45.85
2019-03-18T02:21:05.957Z,48.07
2019-03-18T02:23:33.780Z,48.30
2019-03-18T02:26:07.574Z,49.21
2019-03-18T02:28:37.701Z,48.74
2019-03-18T02:31:05.360Z,49.21
2019-03-18T02:33:34.826Z,49.87
2019-03-18T02:36:07.645Z,50.17
2019-03-18T02:38:35.600Z,51.96
2019-03-18T02:43:57.953Z,53.21
2019-03-18T02:46:22.658Z,52.27
2019-03-18T02:48:50.085Z,53.39
2019-03-18T02:51:17.440Z,53.50
2019-03-18T02:53:45.542Z,55.42
2019-03-18T02:56:13.973Z,54.38
2019-03-18T02:58:47.002Z,53.80
2019-03-18T03:01:16.702Z,52.89
2019-03-18T03:03:44.578Z,53.85
2019-03-18T03:06:11.228Z,53.55
2019-03-18T03:08:53.779Z,53.34
2019-03-18T03:11:24.558Z,53.95
2019-03-18T03:13:52.587Z,53.95
2019-03-18T03:16:26.886Z,54.30
2019-03-18T03:18:57.084Z,54.38
2019-03-18T03:21:30.031Z,54.08
2019-03-18T03:23:59.112Z,54.67
2019-03-18T03:26:29.908Z,53.65
2019-03-18T03:29:14.636Z,52.90
2019-03-18T03:31:42.501Z,50.75
2019-03-18T03:34:14.396Z,50.61
2019-03-18T03:36:48.259Z,48.73
2019-03-18T03:39:23.047Z,49.17
2019-03-18T03:41:51.160Z,49.15
2019-03-18T03:44:21.816Z,49.25
2019-03-18T03:49:40.850Z,49.32
2019-03-18T03:52:19.763Z,49.28
2019-03-18T03:54:48.869Z,49.14
2019-03-18T03:57:18.624Z,49.66
2019-03-18T03:59:47.802Z,49.86
2019-03-18T04:02:14.842Z,49.08
2019-03-18T04:04:41.832Z,49.05
2019-03-18T04:07:12.091Z,48.39
2019-03-18T04:09:42.686Z,48.79
2019-03-18T04:12:20.496Z,49.26
2019-03-18T04:14:48.353Z,48.00
2019-03-18T04:17:16.123Z,48.89
2019-03-18T04:19:49.107Z,48.60
2019-03-18T04:24:50.447Z,49.21
2019-03-18T04:27:19.313Z,49.12
2019-03-18T04:29:50.010Z,49.57
2019-03-18T04:32:23.907Z,51.49
2019-03-18T04:34:53.293Z,51.00
2019-03-18T04:40:07.724Z,50.71
2019-03-18T04:42:38.652Z,51.28
2019-03-18T04:45:11.942Z,51.50
2019-03-18T04:47:42.467Z,52.83
2019-03-18T04:50:09.292Z,53.42
2019-03-18T04:52:38.556Z,52.81
2019-03-18T04:55:11.472Z,52.39
2019-03-18T04:57:40.663Z,51.71
2019-03-18T05:00:11.813Z,51.32
2019-03-18T05:02:39.472Z,51.55
2019-03-18T05:05:07.464Z,50.57
2019-03-18T05:07:35.589Z,49.87
2019-03-18T05:10:04.123Z,49.44
2019-03-18T05:12:38.956Z,49.24
2019-03-18T05:15:05.512Z,49.36
2019-03-18T05:17:37.190Z,48.91
2019-03-18T05:20:08.693Z,48.54
2019-03-18T05:22:37.415Z,48.73
2019-03-18T05:25:07.162Z,48.74
2019-03-18T05:27:34.582Z,47.86
2019-03-18T05:32:49.245Z,47.58
2019-03-18T05:38:08.050Z,47.79
2019-03-18T05:40:36.913Z,49.46
2019-03-18T05:43:06.154Z,48.52
2019-03-18T05:45:34.411Z,47.94
2019-03-18T05:48:04.175Z,47.58
2019-03-18T05:50:36.808Z,47.09
2019-03-18T05:55:55.005Z,46.45
2019-03-18T05:58:26.658Z,46.08
2019-03-18T06:00:58.004Z,46.61
2019-03-18T06:03:24.986Z,46.55
2019-03-18T06:05:51.544Z,45.97
2019-03-18T06:11:18.198Z,46.33
2019-03-18T06:13:49.435Z,46.12
2019-03-18T06:19:06.510Z,45.48
2019-03-18T06:21:35.462Z,45.57
2019-03-18T06:24:09.926Z,45.32
2019-03-18T06:26:38.799Z,45.82
2019-03-18T06:29:14.960Z,45.61
2019-03-18T06:31:44.161Z,45.51
2019-03-18T06:34:28.638Z,45.41
2019-03-18T06:36:56.925Z,45.31
2019-03-18T06:39:28.101Z,44.53
2019-03-18T06:41:58.712Z,45.35
2019-03-18T06:44:31.927Z,44.48
2019-03-18T06:47:03.648Z,45.09
2019-03-18T06:52:21.664Z,45.18
2019-03-18T06:55:00.043Z,43.64
2019-03-18T06:57:29.859Z,44.16
2019-03-18T06:59:59.047Z,44.19
2019-03-18T07:02:33.092Z,44.84
2019-03-18T07:05:02.249Z,44.96
2019-03-18T07:07:31.638Z,44.69
2019-03-18T07:09:59.246Z,44.14
2019-03-18T07:12:28.164Z,44.16
2019-03-18T07:14:55.819Z,43.34
2019-03-18T07:17:26.959Z,44.54
2019-03-18T07:19:58.618Z,44.68
2019-03-18T07:22:25.263Z,44.01
2019-03-18T07:24:54.262Z,43.84
2019-03-18T07:27:39.758Z,44.21
2019-03-18T07:29:54.187Z,44.40
2019-03-18T07:32:21.646Z,43.95
2019-03-18T07:34:49.184Z,43.54
2019-03-18T07:37:16.195Z,44.31
2019-03-18T07:39:46.828Z,44.43
2019-03-18T07:42:21.339Z,42.55
2019-03-18T07:44:49.018Z,43.56
2019-03-18T07:47:20.606Z,43.80
2019-03-18T07:49:48.406Z,43.33
2019-03-18T07:52:21.873Z,43.31
2019-03-18T07:54:49.225Z,43.05
2019-03-18T07:57:17.861Z,43.23
2019-03-18T07:59:47.105Z,43.29
2019-03-18T08:02:17.010Z,43.33
2019-03-18T08:04:49.034Z,43.46
2019-03-18T08:07:20.519Z,41.95
2019-03-18T08:09:48.558Z,41.87
2019-03-18T08:12:15.300Z,42.21
2019-03-18T08:14:43.343Z,42.20
2019-03-18T08:17:13.060Z,42.55
2019-03-18T08:19:42.009Z,42.25
2019-03-18T08:22:11.346Z,41.94
2019-03-18T08:24:38.714Z,41.83
2019-03-18T08:27:11.304Z,41.62
2019-03-18T08:29:42.526Z,41.77
2019-03-18T08:32:12.729Z,41.59
2019-03-18T08:34:43.400Z,41.17
2019-03-18T08:37:10.351Z,41.25
2019-03-18T08:42:24.218Z,41.42
2019-03-18T08:44:53.320Z,41.20
2019-03-18T08:49:56.986Z,40.53
2019-03-18T08:52:25.497Z,39.75
2019-03-18T08:54:54.176Z,39.51
2019-03-18T08:57:24.354Z,39.47
2019-03-18T08:59:55.659Z,39.10
2019-03-18T09:02:22.380Z,38.77
2019-03-18T09:04:53.293Z,38.66
2019-03-18T09:07:22.886Z,39.35
2019-03-18T09:09:51.064Z,38.99
2019-03-18T09:12:18.393Z,38.51
2019-03-18T09:14:45.341Z,38.50
2019-03-18T09:19:58.970Z,38.12
2019-03-18T09:22:26.658Z,39.00
2019-03-18T09:24:53.633Z,38.01
2019-03-18T09:27:21.323Z,38.75
2019-03-18T09:29:50.703Z,39.18
2019-03-18T09:32:20.388Z,38.97
2019-03-18T09:34:48.282Z,38.62
2019-03-18T09:37:15.975Z,38.54
2019-03-18T09:39:51.161Z,38.73
2019-03-18T09:42:19.406Z,38.90
2019-03-18T09:44:52.698Z,37.47
2019-03-18T09:47:19.674Z,38.93
2019-03-18T09:49:50.415Z,40.34
2019-03-18T09:52:21.418Z,40.44
2019-03-18T09:54:49.581Z,39.82
2019-03-18T09:57:25.807Z,41.20
2019-03-18T10:02:36.009Z,43.35
2019-03-18T10:05:02.636Z,44.23
2019-03-18T10:07:31.062Z,44.18
2019-03-18T10:09:58.002Z,44.19
2019-03-18T10:12:24.888Z,42.04
2019-03-18T10:14:52.166Z,43.25
2019-03-18T10:17:20.078Z,42.79
2019-03-18T10:19:46.732Z,41.90
2019-03-18T10:22:13.548Z,41.42
2019-03-18T10:24:41.220Z,41.47
2019-03-18T10:27:08.137Z,39.70
2019-03-18T10:29:35.389Z,40.29
2019-03-18T10:32:02.772Z,38.93
2019-03-18T10:34:30.129Z,39.95
2019-03-18T10:36:57.257Z,40.58
2019-03-18T10:39:24.562Z,40.54
2019-03-18T10:41:51.271Z,39.94
2019-03-18T10:44:18.590Z,39.24
2019-03-18T10:46:45.285Z,39.69
2019-03-18T10:49:12.881Z,39.70
2019-03-18T10:51:39.588Z,40.33
2019-03-18T10:54:06.551Z,41.37
2019-03-18T10:56:33.650Z,40.67
2019-03-18T10:59:00.716Z,41.62
2019-03-18T11:01:27.463Z,43.06
2019-03-18T11:03:55.934Z,43.48
2019-03-18T11:06:23.257Z,44.55
2019-03-18T11:08:50.377Z,46.31
2019-03-18T11:11:17.268Z,49.59
2019-03-18T11:13:44.234Z,49.26
2019-03-18T11:16:11.151Z,49.09
2019-03-18T11:18:38.823Z,49.11
2019-03-18T11:21:05.597Z,49.62
2019-03-18T11:23:32.286Z,48.52
2019-03-18T11:25:59.046Z,50.91
2019-03-18T11:28:25.892Z,51.87
2019-03-18T11:30:53.397Z,53.70
2019-03-18T11:33:21.362Z,52.95
2019-03-18T11:35:48.230Z,52.22
2019-03-18T11:38:14.909Z,52.29
2019-03-18T11:40:41.892Z,52.68
2019-03-18T11:43:08.836Z,51.60
2019-03-18T11:45:35.824Z,51.71
2019-03-18T11:48:03.745Z,51.61
2019-03-18T11:50:30.748Z,50.44
2019-03-18T11:52:57.954Z,50.68
2019-03-18T11:55:24.712Z,50.28
2019-03-18T11:57:51.852Z,51.21
2019-03-18T12:00:19.837Z,51.69
2019-03-18T12:02:46.850Z,51.11
2019-03-18T12:05:13.801Z,51.10
2019-03-18T12:10:26.146Z,50.91
2019-03-18T12:12:54.619Z,50.52
2019-03-18T12:18:08.618Z,50.56
2019-03-18T12:20:35.776Z,50.63
2019-03-18T12:23:03.414Z,50.32
2019-03-18T12:25:33.542Z,51.75
2019-03-18T12:27:59.271Z,51.21
2019-03-18T12:30:27.010Z,51.07
2019-03-18T12:32:54.090Z,51.05
2019-03-18T12:35:20.773Z,51.24
2019-03-18T12:37:47.707Z,51.11
2019-03-18T12:40:15.065Z,50.42
2019-03-18T12:42:43.420Z,50.28
2019-03-18T12:45:11.242Z,49.34
2019-03-18T12:47:38.070Z,49.60
2019-03-18T12:50:06.148Z,48.69
2019-03-18T12:52:36.128Z,49.29
2019-03-18T12:55:03.202Z,50.15
2019-03-18T12:57:30.191Z,50.13
2019-03-18T12:59:58.332Z,49.84
2019-03-18T13:02:26.611Z,48.33
2019-03-18T13:04:57.986Z,48.67
2019-03-18T13:10:14.127Z,47.34
2019-03-18T13:12:45.118Z,47.77
2019-03-18T13:17:58.106Z,48.44
2019-03-18T13:20:26.068Z,49.16
2019-03-18T13:22:59.316Z,48.83
2019-03-18T13:25:28.552Z,47.80
2019-03-18T13:27:57.017Z,47.83
2019-03-18T13:33:14.062Z,47.72
2019-03-18T13:38:30.764Z,48.02
2019-03-18T13:43:47.535Z,47.27
2019-03-18T13:46:15.188Z,48.34
2019-03-18T13:48:44.827Z,48.50
2019-03-18T13:51:20.932Z,48.26
2019-03-18T13:53:46.298Z,48.78
2019-03-18T13:56:13.286Z,47.96
2019-03-18T13:58:45.331Z,48.67
2019-03-18T14:01:19.986Z,49.52
2019-03-18T14:03:47.336Z,48.67
2019-03-18T14:09:01.984Z,47.57
2019-03-18T14:11:30.191Z,48.50
2019-03-18T14:13:58.179Z,48.03
2019-03-18T14:16:25.249Z,48.97
2019-03-18T14:18:54.108Z,48.34
2019-03-18T14:21:32.814Z,48.74
2019-03-18T14:23:51.775Z,48.95
2019-03-18T14:26:19.658Z,48.47
2019-03-18T14:31:36.429Z,49.50
2019-03-18T14:34:08.533Z,48.69
2019-03-18T14:36:39.928Z,48.06
2019-03-18T14:39:08.933Z,47.86
2019-03-18T14:41:40.188Z,46.79
2019-03-18T14:44:08.177Z,47.40
2019-03-18T14:46:41.436Z,48.11
2019-03-18T14:49:10.927Z,47.89
2019-03-18T14:51:46.048Z,47.33
2019-03-18T14:54:11.787Z,47.61
2019-03-18T14:56:42.005Z,47.23
2019-03-18T14:59:11.679Z,47.14
2019-03-18T15:01:40.594Z,47.15
2019-03-18T15:04:10.036Z,47.62
2019-03-18T15:06:41.069Z,48.64
2019-03-18T15:09:10.920Z,47.89
2019-03-18T15:11:37.482Z,48.88
2019-03-18T15:14:05.599Z,48.60
2019-03-18T15:16:33.209Z,48.66
2019-03-18T15:19:02.054Z,48.51
2019-03-18T15:21:29.926Z,47.70
2019-03-18T15:24:00.366Z,47.36
2019-03-18T15:26:27.228Z,47.73
2019-03-18T15:29:00.402Z,47.32
2019-03-18T15:31:31.212Z,48.28
2019-03-18T15:34:02.431Z,48.15
2019-03-18T15:36:33.260Z,48.11
2019-03-18T15:39:08.923Z,47.93
2019-03-18T15:41:34.749Z,47.98
2019-03-18T15:46:51.099Z,48.61
2019-03-18T15:49:19.086Z,48.53
2019-03-18T15:51:47.184Z,48.78
2019-03-18T15:54:16.550Z,48.86
2019-03-18T15:56:45.988Z,48.91
2019-03-18T15:59:17.887Z,49.34
2019-03-18T16:01:46.053Z,49.07
2019-03-18T16:12:37.942Z,49.29
2019-03-18T16:15:08.587Z,48.81
2019-03-18T16:17:37.522Z,48.58
2019-03-18T16:20:05.426Z,48.50
2019-03-18T16:22:33.838Z,48.81
2019-03-18T16:25:04.007Z,48.56
2019-03-18T16:27:31.479Z,49.13
2019-03-18T16:30:03.854Z,48.64
2019-03-18T16:32:30.137Z,48.88
2019-03-18T16:34:59.663Z,48.83
2019-03-18T16:37:28.603Z,47.77
2019-03-18T16:40:08.372Z,47.92
2019-03-18T16:42:39.561Z,48.06
2019-03-18T16:47:59.642Z,48.04
2019-03-18T16:50:27.917Z,48.04
2019-03-18T16:53:10.219Z,48.21
2019-03-18T16:55:27.358Z,48.24
2019-03-18T16:57:56.407Z,48.71
2019-03-18T17:00:25.609Z,48.77
2019-03-18T17:02:52.574Z,49.12
2019-03-18T17:05:19.301Z,49.09
2019-03-18T17:07:47.134Z,48.93
2019-03-18T17:10:15.248Z,48.59
2019-03-18T17:12:41.891Z,48.90
2019-03-18T17:15:08.828Z,49.00
2019-03-18T17:17:35.811Z,49.28
2019-03-18T17:20:02.793Z,49.66
2019-03-18T17:22:29.638Z,49.97
2019-03-18T17:24:56.461Z,49.95
2019-03-18T17:27:23.501Z,50.06
2019-03-18T17:29:50.124Z,50.59
2019-03-18T17:32:16.764Z,50.63
2019-03-18T17:34:43.447Z,50.55
2019-03-18T17:37:10.409Z,50.47
2019-03-18T17:39:37.087Z,50.40
2019-03-18T17:42:03.710Z,50.31
2019-03-18T17:44:30.364Z,50.44
2019-03-18T17:46:58.708Z,50.65
2019-03-18T17:49:26.561Z,50.41
2019-03-18T17:51:53.372Z,50.53
2019-03-18T17:54:20.091Z,50.81
2019-03-18T17:56:46.734Z,51.06
2019-03-18T17:59:13.387Z,50.95
2019-03-18T18:01:40.141Z,50.82
2019-03-18T18:04:06.861Z,50.64
2019-03-18T18:09:18.968Z,50.75
2019-03-18T18:11:46.605Z,51.08
2019-03-18T18:14:13.207Z,51.41
2019-03-18T18:16:40.083Z,51.63
2019-03-18T18:19:08.250Z,51.28
2019-03-18T18:21:34.851Z,51.14
2019-03-18T18:24:01.817Z,51.09
2019-03-18T18:26:28.960Z,51.09
2019-03-18T18:28:58.328Z,51.10
2019-03-18T18:31:25.967Z,51.21
2019-03-18T18:33:52.936Z,51.16
2019-03-18T18:36:19.663Z,51.42
2019-03-18T18:38:46.296Z,51.58
2019-03-18T18:41:13.975Z,51.76
2019-03-18T18:43:41.993Z,51.64
2019-03-18T18:46:08.649Z,51.88
2019-03-18T18:48:35.443Z,51.68
2019-03-18T18:51:02.668Z,51.50
2019-03-18T18:53:30.281Z,51.45
2019-03-18T18:56:14.553Z,51.72
2019-03-18T18:58:41.562Z,52.02
2019-03-18T19:01:19.925Z,52.20
2019-03-18T19:03:47.544Z,52.10
2019-03-18T19:06:14.467Z,51.79
2019-03-18T19:08:42.101Z,51.66
2019-03-18T19:11:09.051Z,51.89
2019-03-18T19:13:37.295Z,51.97
2019-03-18T19:16:04.235Z,52.08
2019-03-18T19:18:37.754Z,52.49
2019-03-18T19:21:01.986Z,52.75
2019-03-18T19:23:37.595Z,52.76
2019-03-18T19:25:58.694Z,53.10
2019-03-18T19:28:26.335Z,53.89
2019-03-18T19:30:53.061Z,54.13
2019-03-18T19:33:21.292Z,53.83
2019-03-18T19:35:47.890Z,53.43
2019-03-18T19:38:15.870Z,53.29
2019-03-18T19:40:43.804Z,53.21
2019-03-18T19:43:11.422Z,53.27
2019-03-18T19:45:39.077Z,52.99
2019-03-18T19:48:06.234Z,53.68
2019-03-18T19:50:33.113Z,54.06
2019-03-18T19:53:00.709Z,54.14
2019-03-18T19:55:28.324Z,53.87
2019-03-18T19:57:55.166Z,53.47
2019-03-18T20:00:22.806Z,53.39
2019-03-18T20:02:49.594Z,53.44
2019-03-18T20:05:18.904Z,53.70
2019-03-18T20:10:30.955Z,53.60
2019-03-18T20:12:57.721Z,53.59
2019-03-18T20:15:26.160Z,53.49
2019-03-18T20:17:52.908Z,53.28
2019-03-18T20:20:21.965Z,53.54
2019-03-18T20:22:48.671Z,53.81
2019-03-18T20:25:15.361Z,53.94
2019-03-18T20:27:42.631Z,53.80
2019-03-18T20:30:09.339Z,53.58
2019-03-18T20:32:36.472Z,53.92
2019-03-18T20:35:03.108Z,54.19
2019-03-18T20:37:31.797Z,54.18
2019-03-18T20:39:58.453Z,54.26
2019-03-18T20:42:25.366Z,54.42
2019-03-18T20:44:53.746Z,54.04
2019-03-18T20:47:20.589Z,53.89
2019-03-18T20:49:47.201Z,53.74
2019-03-18T20:52:17.051Z,54.34
2019-03-18T20:54:42.716Z,54.63
2019-03-18T20:57:09.586Z,54.29
2019-03-18T20:59:36.244Z,54.27
2019-03-18T21:02:03.479Z,54.49
2019-03-18T21:04:31.194Z,54.12
2019-03-18T21:06:59.626Z,54.00
2019-03-18T21:09:26.473Z,53.79
2019-03-18T21:11:54.018Z,53.56
2019-03-18T21:14:20.693Z,53.85
2019-03-18T21:16:47.701Z,54.21
2019-03-18T21:19:14.441Z,54.22
2019-03-18T21:21:41.614Z,54.47
2019-03-18T21:24:08.627Z,54.62
2019-03-18T21:26:35.287Z,54.23
2019-03-18T21:29:01.984Z,54.37
2019-03-18T21:31:28.759Z,54.27
2019-03-18T21:33:56.366Z,54.35
2019-03-18T21:36:36.953Z,54.39
2019-03-18T21:38:53.218Z,54.33
2019-03-18T21:41:20.819Z,54.10
2019-03-18T21:43:48.482Z,54.05
2019-03-18T21:46:15.466Z,53.85
2019-03-18T21:48:42.334Z,53.48
2019-03-18T21:51:10.040Z,53.72
2019-03-18T21:53:37.920Z,53.83
2019-03-18T21:56:05.717Z,53.79
2019-03-18T21:58:33.382Z,53.88
2019-03-18T22:01:00.591Z,54.16
2019-03-18T22:03:27.282Z,54.32
2019-03-18T22:05:53.928Z,54.20
2019-03-18T22:08:25.082Z,53.94
2019-03-18T22:10:53.709Z,53.82
2019-03-18T22:13:22.595Z,53.56
2019-03-18T22:15:50.967Z,53.60
2019-03-18T22:18:19.147Z,53.56
2019-03-18T22:20:52.001Z,53.34
2019-03-18T22:23:22.895Z,53.58
2019-03-18T22:25:50.762Z,53.54
2019-03-18T22:28:19.761Z,53.37
2019-03-18T22:30:46.884Z,53.67
2019-03-18T22:33:20.256Z,54.23
2019-03-18T22:35:50.770Z,54.40
2019-03-18T22:38:19.879Z,54.58
2019-03-18T22:40:49.517Z,54.52
2019-03-18T22:43:17.876Z,54.28
2019-03-18T22:45:47.541Z,54.38
2019-03-18T22:48:15.534Z,54.70
2019-03-18T22:50:46.085Z,54.70
2019-03-18T22:53:16.413Z,54.83
2019-03-18T22:55:46.692Z,54.65
2019-03-18T22:58:16.279Z,54.50
2019-03-18T23:00:45.868Z,53.87
2019-03-18T23:03:12.692Z,54.09
2019-03-18T23:05:39.366Z,53.73
2019-03-18T23:08:06.226Z,53.74
2019-03-18T23:10:32.928Z,53.75
2019-03-18T23:12:59.809Z,53.96
2019-03-18T23:15:26.478Z,53.70
2019-03-18T23:17:54.074Z,53.91
2019-03-18T23:20:20.733Z,54.00
2019-03-18T23:22:47.467Z,54.10
2019-03-18T23:25:14.348Z,54.46
2019-03-18T23:27:40.976Z,54.82
2019-03-18T23:30:08.907Z,55.46
2019-03-18T23:32:35.584Z,55.68
2019-03-18T23:35:02.189Z,55.55
2019-03-18T23:37:28.859Z,54.96
2019-03-18T23:39:55.549Z,55.27
2019-03-18T23:42:22.241Z,55.79
2019-03-18T23:44:50.153Z,55.53
2019-03-18T23:47:16.804Z,55.44
2019-03-18T23:49:43.462Z,55.18
2019-03-18T23:52:10.110Z,54.73
2019-03-18T23:54:37.022Z,54.46
2019-03-18T23:57:03.886Z,54.25
2019-03-18T23:59:30.539Z,54.00
